sensor_id;sensor_type;location;lat;lon;timestamp;temperature;humidity
75719;DHT22;64340;48.534;-3.036;2022-12-11T00:00:43;14.70;56.20
75719;DHT22;64340;48.534;-3.036;2022-12-11T00:03:09;14.70;56.00
75719;DHT22;64340;48.534;-3.036;2022-12-11T00:05:37;14.70;55.70
75719;DHT22;64340;48.534;-3.036;2022-12-11T00:08:03;14.80;55.70
75719;DHT22;64340;48.534;-3.036;2022-12-11T00:10:29;14.80;55.50
75719;DHT22;64340;48.534;-3.036;2022-12-11T00:12:54;14.90;55.30
75719;DHT22;64340;48.534;-3.036;2022-12-11T00:15:20;14.90;55.10
75719;DHT22;64340;48.534;-3.036;2022-12-11T00:17:46;15.00;55.00
75719;DHT22;64340;48.534;-3.036;2022-12-11T00:20:11;15.00;54.90
75719;DHT22;64340;48.534;-3.036;2022-12-11T00:22:37;15.00;54.80
75719;DHT22;64340;48.534;-3.036;2022-12-11T00:25:02;15.00;54.70
75719;DHT22;64340;48.534;-3.036;2022-12-11T00:27:28;15.10;54.60
75719;DHT22;64340;48.534;-3.036;2022-12-11T00:29:54;15.10;54.40
75719;DHT22;64340;48.534;-3.036;2022-12-11T00:32:19;15.20;54.40
75719;DHT22;64340;48.534;-3.036;2022-12-11T00:34:45;15.20;54.20
75719;DHT22;64340;48.534;-3.036;2022-12-11T00:37:10;15.20;54.20
75719;DHT22;64340;48.534;-3.036;2022-12-11T00:39:36;15.30;54.10
75719;DHT22;64340;48.534;-3.036;2022-12-11T00:42:04;15.30;54.00
75719;DHT22;64340;48.534;-3.036;2022-12-11T00:44:30;15.30;54.00
75719;DHT22;64340;48.534;-3.036;2022-12-11T00:46:55;15.40;53.90
75719;DHT22;64340;48.534;-3.036;2022-12-11T00:49:21;15.40;53.80
75719;DHT22;64340;48.534;-3.036;2022-12-11T00:51:47;15.40;53.70
75719;DHT22;64340;48.534;-3.036;2022-12-11T00:54:12;15.40;53.60
75719;DHT22;64340;48.534;-3.036;2022-12-11T00:56:38;15.40;53.50
75719;DHT22;64340;48.534;-3.036;2022-12-11T00:59:04;15.40;53.50
75719;DHT22;64340;48.534;-3.036;2022-12-11T01:01:29;15.40;53.50
75719;DHT22;64340;48.534;-3.036;2022-12-11T01:03:55;15.40;53.50
75719;DHT22;64340;48.534;-3.036;2022-12-11T01:06:22;15.40;53.40
75719;DHT22;64340;48.534;-3.036;2022-12-11T01:08:48;15.30;53.40
75719;DHT22;64340;48.534;-3.036;2022-12-11T01:11:34;15.40;53.40
75719;DHT22;64340;48.534;-3.036;2022-12-11T01:13:59;15.30;53.30
75719;DHT22;64340;48.534;-3.036;2022-12-11T01:16:25;15.30;53.30
75719;DHT22;64340;48.534;-3.036;2022-12-11T01:18:51;15.30;53.30
75719;DHT22;64340;48.534;-3.036;2022-12-11T01:21:16;15.30;53.20
75719;DHT22;64340;48.534;-3.036;2022-12-11T01:23:42;15.30;53.20
75719;DHT22;64340;48.534;-3.036;2022-12-11T01:26:08;15.30;53.20
75719;DHT22;64340;48.534;-3.036;2022-12-11T01:28:34;15.30;53.10
75719;DHT22;64340;48.534;-3.036;2022-12-11T01:31:00;15.20;53.10
75719;DHT22;64340;48.534;-3.036;2022-12-11T01:33:26;15.20;53.10
75719;DHT22;64340;48.534;-3.036;2022-12-11T01:35:52;15.20;53.10
75719;DHT22;64340;48.534;-3.036;2022-12-11T01:38:18;15.20;53.10
75719;DHT22;64340;48.534;-3.036;2022-12-11T01:40:47;15.10;53.00
75719;DHT22;64340;48.534;-3.036;2022-12-11T01:43:12;15.10;53.00
75719;DHT22;64340;48.534;-3.036;2022-12-11T01:45:39;15.10;53.00
75719;DHT22;64340;48.534;-3.036;2022-12-11T01:48:10;15.00;53.00
75719;DHT22;64340;48.534;-3.036;2022-12-11T01:50:38;15.00;52.90
75719;DHT22;64340;48.534;-3.036;2022-12-11T01:53:05;15.00;53.00
75719;DHT22;64340;48.534;-3.036;2022-12-11T01:55:32;15.00;53.00
75719;DHT22;64340;48.534;-3.036;2022-12-11T01:57:58;15.00;52.90
75719;DHT22;64340;48.534;-3.036;2022-12-11T02:00:24;15.00;53.00
75719;DHT22;64340;48.534;-3.036;2022-12-11T02:02:50;14.90;52.90
75719;DHT22;64340;48.534;-3.036;2022-12-11T02:05:16;14.90;53.00
75719;DHT22;64340;48.534;-3.036;2022-12-11T02:07:45;14.90;52.70
75719;DHT22;64340;48.534;-3.036;2022-12-11T02:10:11;14.90;52.70
75719;DHT22;64340;48.534;-3.036;2022-12-11T02:12:50;14.90;52.80
75719;DHT22;64340;48.534;-3.036;2022-12-11T02:15:34;14.80;53.00
75719;DHT22;64340;48.534;-3.036;2022-12-11T02:18:19;14.80;52.80
75719;DHT22;64340;48.534;-3.036;2022-12-11T02:20:51;14.80;52.80
75719;DHT22;64340;48.534;-3.036;2022-12-11T02:28:38;14.60;52.40
75719;DHT22;64340;48.534;-3.036;2022-12-11T02:31:11;14.60;52.60
75719;DHT22;64340;48.534;-3.036;2022-12-11T02:33:45;14.60;52.60
75719;DHT22;64340;48.534;-3.036;2022-12-11T02:36:15;14.50;52.30
75719;DHT22;64340;48.534;-3.036;2022-12-11T02:38:41;14.50;52.20
75719;DHT22;64340;48.534;-3.036;2022-12-11T02:41:08;14.50;52.20
75719;DHT22;64340;48.534;-3.036;2022-12-11T02:43:34;14.40;52.50
75719;DHT22;64340;48.534;-3.036;2022-12-11T02:46:02;14.40;52.50
75719;DHT22;64340;48.534;-3.036;2022-12-11T02:48:28;14.40;52.50
75719;DHT22;64340;48.534;-3.036;2022-12-11T02:50:55;14.30;52.40
75719;DHT22;64340;48.534;-3.036;2022-12-11T02:53:23;14.30;52.50
75719;DHT22;64340;48.534;-3.036;2022-12-11T02:55:51;14.20;52.40
75719;DHT22;64340;48.534;-3.036;2022-12-11T02:58:21;14.20;52.30
75719;DHT22;64340;48.534;-3.036;2022-12-11T03:00:48;14.20;52.30
75719;DHT22;64340;48.534;-3.036;2022-12-11T03:03:13;14.10;52.30
75719;DHT22;64340;48.534;-3.036;2022-12-11T03:05:39;14.10;52.30
75719;DHT22;64340;48.534;-3.036;2022-12-11T03:08:06;14.00;52.30
75719;DHT22;64340;48.534;-3.036;2022-12-11T03:10:31;14.00;52.30
75719;DHT22;64340;48.534;-3.036;2022-12-11T03:12:57;14.00;52.30
75719;DHT22;64340;48.534;-3.036;2022-12-11T03:15:28;13.90;52.30
75719;DHT22;64340;48.534;-3.036;2022-12-11T03:18:08;13.90;52.30
75719;DHT22;64340;48.534;-3.036;2022-12-11T03:20:44;13.90;52.20
75719;DHT22;64340;48.534;-3.036;2022-12-11T03:23:17;13.90;52.20
75719;DHT22;64340;48.534;-3.036;2022-12-11T03:28:17;13.80;52.20
75719;DHT22;64340;48.534;-3.036;2022-12-11T03:30:44;13.70;52.20
75719;DHT22;64340;48.534;-3.036;2022-12-11T03:33:14;13.70;52.20
75719;DHT22;64340;48.534;-3.036;2022-12-11T03:35:44;13.70;52.20
75719;DHT22;64340;48.534;-3.036;2022-12-11T03:38:20;13.70;52.30
75719;DHT22;64340;48.534;-3.036;2022-12-11T03:40:47;13.60;52.20
75719;DHT22;64340;48.534;-3.036;2022-12-11T03:43:15;13.60;52.10
75719;DHT22;64340;48.534;-3.036;2022-12-11T03:45:41;13.50;52.10
75719;DHT22;64340;48.534;-3.036;2022-12-11T03:48:07;13.50;52.10
75719;DHT22;64340;48.534;-3.036;2022-12-11T03:50:33;13.50;52.20
75719;DHT22;64340;48.534;-3.036;2022-12-11T03:53:00;13.50;52.00
75719;DHT22;64340;48.534;-3.036;2022-12-11T03:55:27;13.50;51.90
75719;DHT22;64340;48.534;-3.036;2022-12-11T03:57:53;13.40;52.00
75719;DHT22;64340;48.534;-3.036;2022-12-11T04:00:19;13.40;52.00
75719;DHT22;64340;48.534;-3.036;2022-12-11T04:02:45;13.30;51.90
75719;DHT22;64340;48.534;-3.036;2022-12-11T04:05:31;13.30;51.90
75719;DHT22;64340;48.534;-3.036;2022-12-11T04:07:56;13.30;51.80
75719;DHT22;64340;48.534;-3.036;2022-12-11T04:10:22;13.30;51.80
75719;DHT22;64340;48.534;-3.036;2022-12-11T04:12:48;13.20;51.80
75719;DHT22;64340;48.534;-3.036;2022-12-11T04:15:14;13.20;51.90
75719;DHT22;64340;48.534;-3.036;2022-12-11T04:17:39;13.10;51.80
75719;DHT22;64340;48.534;-3.036;2022-12-11T04:20:23;13.10;51.70
75719;DHT22;64340;48.534;-3.036;2022-12-11T04:23:12;13.10;51.70
75719;DHT22;64340;48.534;-3.036;2022-12-11T04:26:04;13.10;51.80
75719;DHT22;64340;48.534;-3.036;2022-12-11T04:28:30;13.00;51.70
75719;DHT22;64340;48.534;-3.036;2022-12-11T04:30:55;13.00;51.80
75719;DHT22;64340;48.534;-3.036;2022-12-11T04:33:21;13.00;51.60
75719;DHT22;64340;48.534;-3.036;2022-12-11T04:35:47;13.00;51.60
75719;DHT22;64340;48.534;-3.036;2022-12-11T04:38:12;13.00;51.60
75719;DHT22;64340;48.534;-3.036;2022-12-11T04:40:38;12.90;51.50
75719;DHT22;64340;48.534;-3.036;2022-12-11T04:43:03;12.90;51.50
75719;DHT22;64340;48.534;-3.036;2022-12-11T04:45:29;12.90;51.50
75719;DHT22;64340;48.534;-3.036;2022-12-11T04:47:54;12.90;51.60
75719;DHT22;64340;48.534;-3.036;2022-12-11T04:50:20;12.80;51.50
75719;DHT22;64340;48.534;-3.036;2022-12-11T04:52:46;12.80;51.50
75719;DHT22;64340;48.534;-3.036;2022-12-11T04:55:11;12.80;51.50
75719;DHT22;64340;48.534;-3.036;2022-12-11T04:57:37;12.70;51.50
75719;DHT22;64340;48.534;-3.036;2022-12-11T05:00:04;12.70;51.40
75719;DHT22;64340;48.534;-3.036;2022-12-11T05:02:32;12.70;51.50
75719;DHT22;64340;48.534;-3.036;2022-12-11T05:04:58;12.70;51.40
75719;DHT22;64340;48.534;-3.036;2022-12-11T05:07:24;12.60;51.60
75719;DHT22;64340;48.534;-3.036;2022-12-11T05:09:49;12.50;51.40
75719;DHT22;64340;48.534;-3.036;2022-12-11T05:12:15;12.50;51.40
75719;DHT22;64340;48.534;-3.036;2022-12-11T05:14:40;12.50;51.50
75719;DHT22;64340;48.534;-3.036;2022-12-11T05:17:06;12.50;51.40
75719;DHT22;64340;48.534;-3.036;2022-12-11T05:19:31;12.50;51.20
75719;DHT22;64340;48.534;-3.036;2022-12-11T05:21:57;12.50;51.20
75719;DHT22;64340;48.534;-3.036;2022-12-11T05:24:23;12.50;51.00
75719;DHT22;64340;48.534;-3.036;2022-12-11T05:26:48;12.50;51.00
75719;DHT22;64340;48.534;-3.036;2022-12-11T05:29:14;12.40;51.10
75719;DHT22;64340;48.534;-3.036;2022-12-11T05:31:39;12.40;50.90
75719;DHT22;64340;48.534;-3.036;2022-12-11T05:34:05;12.30;50.70
75719;DHT22;64340;48.534;-3.036;2022-12-11T05:36:32;12.30;50.30
75719;DHT22;64340;48.534;-3.036;2022-12-11T05:38:58;12.30;50.50
75719;DHT22;64340;48.534;-3.036;2022-12-11T05:41:24;12.30;50.60
75719;DHT22;64340;48.534;-3.036;2022-12-11T05:43:50;12.30;50.70
75719;DHT22;64340;48.534;-3.036;2022-12-11T05:46:17;12.20;50.70
75719;DHT22;64340;48.534;-3.036;2022-12-11T05:48:44;12.20;50.40
75719;DHT22;64340;48.534;-3.036;2022-12-11T05:51:10;12.20;50.40
75719;DHT22;64340;48.534;-3.036;2022-12-11T05:53:36;12.10;50.70
75719;DHT22;64340;48.534;-3.036;2022-12-11T05:56:03;12.10;50.40
75719;DHT22;64340;48.534;-3.036;2022-12-11T05:58:28;12.10;50.30
75719;DHT22;64340;48.534;-3.036;2022-12-11T06:00:54;12.10;50.30
75719;DHT22;64340;48.534;-3.036;2022-12-11T06:03:20;12.00;50.40
75719;DHT22;64340;48.534;-3.036;2022-12-11T06:05:45;12.00;50.30
75719;DHT22;64340;48.534;-3.036;2022-12-11T06:08:11;12.00;50.50
75719;DHT22;64340;48.534;-3.036;2022-12-11T06:10:36;12.00;50.20
75719;DHT22;64340;48.534;-3.036;2022-12-11T06:13:02;12.00;50.30
75719;DHT22;64340;48.534;-3.036;2022-12-11T06:15:28;12.00;50.40
75719;DHT22;64340;48.534;-3.036;2022-12-11T06:17:54;11.90;50.50
75719;DHT22;64340;48.534;-3.036;2022-12-11T06:20:19;11.90;50.50
75719;DHT22;64340;48.534;-3.036;2022-12-11T06:22:45;11.90;50.20
75719;DHT22;64340;48.534;-3.036;2022-12-11T06:25:10;11.90;50.30
75719;DHT22;64340;48.534;-3.036;2022-12-11T06:27:36;11.90;50.30
75719;DHT22;64340;48.534;-3.036;2022-12-11T06:30:02;11.90;50.40
75719;DHT22;64340;48.534;-3.036;2022-12-11T06:32:28;11.90;50.70
75719;DHT22;64340;48.534;-3.036;2022-12-11T06:34:53;11.90;50.30
75719;DHT22;64340;48.534;-3.036;2022-12-11T06:37:19;11.80;50.50
75719;DHT22;64340;48.534;-3.036;2022-12-11T06:39:44;11.80;50.40
75719;DHT22;64340;48.534;-3.036;2022-12-11T06:42:10;11.80;50.50
75719;DHT22;64340;48.534;-3.036;2022-12-11T06:44:36;11.70;50.50
75719;DHT22;64340;48.534;-3.036;2022-12-11T06:47:02;11.70;50.50
75719;DHT22;64340;48.534;-3.036;2022-12-11T06:49:28;11.70;50.40
75719;DHT22;64340;48.534;-3.036;2022-12-11T06:51:54;11.70;50.50
75719;DHT22;64340;48.534;-3.036;2022-12-11T06:54:23;11.70;50.50
75719;DHT22;64340;48.534;-3.036;2022-12-11T06:56:49;11.70;50.70
75719;DHT22;64340;48.534;-3.036;2022-12-11T06:59:15;11.70;50.90
75719;DHT22;64340;48.534;-3.036;2022-12-11T07:01:40;11.70;50.60
75719;DHT22;64340;48.534;-3.036;2022-12-11T07:04:07;11.70;50.60
75719;DHT22;64340;48.534;-3.036;2022-12-11T07:06:33;11.70;50.60
75719;DHT22;64340;48.534;-3.036;2022-12-11T07:08:58;11.70;50.40
75719;DHT22;64340;48.534;-3.036;2022-12-11T07:11:24;11.70;50.50
75719;DHT22;64340;48.534;-3.036;2022-12-11T07:13:50;11.60;50.50
75719;DHT22;64340;48.534;-3.036;2022-12-11T07:16:15;11.60;50.50
75719;DHT22;64340;48.534;-3.036;2022-12-11T07:18:42;11.60;50.50
75719;DHT22;64340;48.534;-3.036;2022-12-11T07:21:11;11.50;50.40
75719;DHT22;64340;48.534;-3.036;2022-12-11T07:23:37;11.50;50.50
75719;DHT22;64340;48.534;-3.036;2022-12-11T07:26:04;11.60;50.50
75719;DHT22;64340;48.534;-3.036;2022-12-11T07:28:30;11.70;50.70
75719;DHT22;64340;48.534;-3.036;2022-12-11T07:30:55;11.70;50.90
75719;DHT22;64340;48.534;-3.036;2022-12-11T07:33:21;11.50;50.70
75719;DHT22;64340;48.534;-3.036;2022-12-11T07:35:46;10.30;50.90
75719;DHT22;64340;48.534;-3.036;2022-12-11T07:38:12;9.60;52.30
75719;DHT22;64340;48.534;-3.036;2022-12-11T07:40:37;9.20;53.10
75719;DHT22;64340;48.534;-3.036;2022-12-11T07:43:03;8.80;53.70
75719;DHT22;64340;48.534;-3.036;2022-12-11T07:45:29;8.60;54.00
75719;DHT22;64340;48.534;-3.036;2022-12-11T07:47:54;8.30;54.40
75719;DHT22;64340;48.534;-3.036;2022-12-11T07:50:20;8.40;54.90
75719;DHT22;64340;48.534;-3.036;2022-12-11T07:52:45;8.50;54.60
75719;DHT22;64340;48.534;-3.036;2022-12-11T07:55:11;8.60;54.80
75719;DHT22;64340;48.534;-3.036;2022-12-11T07:57:36;9.30;55.20
75719;DHT22;64340;48.534;-3.036;2022-12-11T08:00:03;10.10;53.40
75719;DHT22;64340;48.534;-3.036;2022-12-11T08:02:29;10.70;53.10
75719;DHT22;64340;48.534;-3.036;2022-12-11T08:04:54;11.10;52.50
75719;DHT22;64340;48.534;-3.036;2022-12-11T08:07:20;11.50;52.20
75719;DHT22;64340;48.534;-3.036;2022-12-11T08:09:45;11.70;52.00
75719;DHT22;64340;48.534;-3.036;2022-12-11T08:12:11;11.80;52.60
75719;DHT22;64340;48.534;-3.036;2022-12-11T08:14:37;12.00;53.80
75719;DHT22;64340;48.534;-3.036;2022-12-11T08:17:03;12.10;53.30
75719;DHT22;64340;48.534;-3.036;2022-12-11T08:19:28;12.00;55.00
75719;DHT22;64340;48.534;-3.036;2022-12-11T08:21:54;11.70;54.70
75719;DHT22;64340;48.534;-3.036;2022-12-11T08:24:19;11.70;53.50
75719;DHT22;64340;48.534;-3.036;2022-12-11T08:26:48;11.70;53.40
75719;DHT22;64340;48.534;-3.036;2022-12-11T08:29:14;12.00;53.50
75719;DHT22;64340;48.534;-3.036;2022-12-11T08:31:39;12.20;53.40
75719;DHT22;64340;48.534;-3.036;2022-12-11T08:34:05;12.30;53.50
75719;DHT22;64340;48.534;-3.036;2022-12-11T08:36:31;12.50;53.30
75719;DHT22;64340;48.534;-3.036;2022-12-11T08:38:56;12.50;53.50
75719;DHT22;64340;48.534;-3.036;2022-12-11T08:41:23;12.50;52.10
75719;DHT22;64340;48.534;-3.036;2022-12-11T08:43:50;12.50;53.10
75719;DHT22;64340;48.534;-3.036;2022-12-11T08:46:20;12.60;53.60
75719;DHT22;64340;48.534;-3.036;2022-12-11T08:48:46;12.70;52.90
75719;DHT22;64340;48.534;-3.036;2022-12-11T08:51:13;12.60;52.30
75719;DHT22;64340;48.534;-3.036;2022-12-11T08:53:39;12.50;52.10
75719;DHT22;64340;48.534;-3.036;2022-12-11T08:56:06;12.50;52.10
75719;DHT22;64340;48.534;-3.036;2022-12-11T08:58:32;12.50;51.20
75719;DHT22;64340;48.534;-3.036;2022-12-11T09:00:57;12.40;52.20
75719;DHT22;64340;48.534;-3.036;2022-12-11T09:03:23;12.50;53.10
75719;DHT22;64340;48.534;-3.036;2022-12-11T09:05:49;12.60;52.90
75719;DHT22;64340;48.534;-3.036;2022-12-11T09:08:15;12.90;52.40
75719;DHT22;64340;48.534;-3.036;2022-12-11T09:10:40;13.10;53.20
75719;DHT22;64340;48.534;-3.036;2022-12-11T09:13:07;12.90;53.40
75719;DHT22;64340;48.534;-3.036;2022-12-11T09:15:32;13.10;53.50
75719;DHT22;64340;48.534;-3.036;2022-12-11T09:17:58;13.30;54.70
75719;DHT22;64340;48.534;-3.036;2022-12-11T09:20:24;12.70;50.80
75719;DHT22;64340;48.534;-3.036;2022-12-11T09:22:49;12.70;55.70
75719;DHT22;64340;48.534;-3.036;2022-12-11T09:25:15;13.00;55.40
75719;DHT22;64340;48.534;-3.036;2022-12-11T09:27:40;13.10;55.40
75719;DHT22;64340;48.534;-3.036;2022-12-11T09:30:06;13.30;55.30
75719;DHT22;64340;48.534;-3.036;2022-12-11T09:44:53;13.70;54.80
75719;DHT22;64340;48.534;-3.036;2022-12-11T09:49:54;13.70;55.80
75719;DHT22;64340;48.534;-3.036;2022-12-11T09:52:29;13.70;55.50
75719;DHT22;64340;48.534;-3.036;2022-12-11T09:55:00;13.70;56.00
75719;DHT22;64340;48.534;-3.036;2022-12-11T10:00:02;13.80;55.90
75719;DHT22;64340;48.534;-3.036;2022-12-11T10:02:36;13.90;55.90
75719;DHT22;64340;48.534;-3.036;2022-12-11T10:05:46;13.90;55.80
75719;DHT22;64340;48.534;-3.036;2022-12-11T10:10:43;13.90;55.80
75719;DHT22;64340;48.534;-3.036;2022-12-11T10:13:34;13.90;55.70
75719;DHT22;64340;48.534;-3.036;2022-12-11T10:18:38;13.90;57.10
75719;DHT22;64340;48.534;-3.036;2022-12-11T10:21:04;13.90;57.20
75719;DHT22;64340;48.534;-3.036;2022-12-11T10:23:40;14.00;57.10
75719;DHT22;64340;48.534;-3.036;2022-12-11T10:26:12;14.00;58.10
75719;DHT22;64340;48.534;-3.036;2022-12-11T10:28:40;14.10;57.60
75719;DHT22;64340;48.534;-3.036;2022-12-11T10:36:28;14.30;56.40
75719;DHT22;64340;48.534;-3.036;2022-12-11T10:38:54;14.20;56.30
75719;DHT22;64340;48.534;-3.036;2022-12-11T10:41:21;14.10;56.20
75719;DHT22;64340;48.534;-3.036;2022-12-11T10:43:50;14.10;56.50
75719;DHT22;64340;48.534;-3.036;2022-12-11T10:46:20;14.10;56.30
75719;DHT22;64340;48.534;-3.036;2022-12-11T10:51:11;14.20;56.10
75719;DHT22;64340;48.534;-3.036;2022-12-11T10:53:38;14.30;55.90
75719;DHT22;64340;48.534;-3.036;2022-12-11T10:56:04;14.30;55.70
75719;DHT22;64340;48.534;-3.036;2022-12-11T10:58:31;14.40;55.80
75719;DHT22;64340;48.534;-3.036;2022-12-11T11:01:08;14.40;55.70
75719;DHT22;64340;48.534;-3.036;2022-12-11T11:03:50;14.40;55.70
75719;DHT22;64340;48.534;-3.036;2022-12-11T11:06:17;14.40;56.50
75719;DHT22;64340;48.534;-3.036;2022-12-11T11:08:44;14.40;56.60
75719;DHT22;64340;48.534;-3.036;2022-12-11T11:16:38;14.40;56.80
75719;DHT22;64340;48.534;-3.036;2022-12-11T11:19:05;14.40;57.00
75719;DHT22;64340;48.534;-3.036;2022-12-11T11:21:45;14.40;57.20
75719;DHT22;64340;48.534;-3.036;2022-12-11T11:24:23;14.40;57.10
75719;DHT22;64340;48.534;-3.036;2022-12-11T11:26:51;14.40;57.00
75719;DHT22;64340;48.534;-3.036;2022-12-11T11:29:25;14.40;56.90
75719;DHT22;64340;48.534;-3.036;2022-12-11T11:31:53;14.60;56.50
75719;DHT22;64340;48.534;-3.036;2022-12-11T11:34:19;14.70;56.70
75719;DHT22;64340;48.534;-3.036;2022-12-11T11:36:56;14.70;56.70
75719;DHT22;64340;48.534;-3.036;2022-12-11T11:39:25;14.60;56.50
75719;DHT22;64340;48.534;-3.036;2022-12-11T11:41:57;14.60;57.00
75719;DHT22;64340;48.534;-3.036;2022-12-11T11:47:23;15.00;57.20
75719;DHT22;64340;48.534;-3.036;2022-12-11T11:52:32;15.20;57.50
75719;DHT22;64340;48.534;-3.036;2022-12-11T11:55:07;15.30;57.50
75719;DHT22;64340;48.534;-3.036;2022-12-11T11:57:53;15.40;57.30
75719;DHT22;64340;48.534;-3.036;2022-12-11T12:00:24;15.40;57.40
75719;DHT22;64340;48.534;-3.036;2022-12-11T12:02:52;15.50;57.90
75719;DHT22;64340;48.534;-3.036;2022-12-11T12:05:22;15.50;58.30
75719;DHT22;64340;48.534;-3.036;2022-12-11T12:08:13;15.50;58.50
75719;DHT22;64340;48.534;-3.036;2022-12-11T12:14:09;15.60;58.90
75719;DHT22;64340;48.534;-3.036;2022-12-11T12:16:03;15.70;59.60
75719;DHT22;64340;48.534;-3.036;2022-12-11T12:21:56;15.90;59.00
75719;DHT22;64340;48.534;-3.036;2022-12-11T12:26:32;16.10;59.20
75719;DHT22;64340;48.534;-3.036;2022-12-11T12:33:57;16.10;60.20
75719;DHT22;64340;48.534;-3.036;2022-12-11T12:48:43;16.10;60.00
75719;DHT22;64340;48.534;-3.036;2022-12-11T12:51:12;16.10;60.00
75719;DHT22;64340;48.534;-3.036;2022-12-11T12:53:38;16.20;59.80
75719;DHT22;64340;48.534;-3.036;2022-12-11T12:56:05;16.20;60.00
75719;DHT22;64340;48.534;-3.036;2022-12-11T13:03:34;16.30;59.50
75719;DHT22;64340;48.534;-3.036;2022-12-11T13:06:01;16.30;59.00
75719;DHT22;64340;48.534;-3.036;2022-12-11T13:08:30;16.30;59.00
75719;DHT22;64340;48.534;-3.036;2022-12-11T13:11:05;16.40;58.40
75719;DHT22;64340;48.534;-3.036;2022-12-11T13:14:00;16.20;57.90
75719;DHT22;64340;48.534;-3.036;2022-12-11T13:18:43;16.10;58.90
75719;DHT22;64340;48.534;-3.036;2022-12-11T13:23:54;16.00;57.30
75719;DHT22;64340;48.534;-3.036;2022-12-11T13:26:27;15.80;58.00
75719;DHT22;64340;48.534;-3.036;2022-12-11T13:28:53;15.60;58.90
75719;DHT22;64340;48.534;-3.036;2022-12-11T13:33:48;15.50;58.60
75719;DHT22;64340;48.534;-3.036;2022-12-11T13:36:31;15.60;59.30
75719;DHT22;64340;48.534;-3.036;2022-12-11T13:39:03;15.80;59.60
75719;DHT22;64340;48.534;-3.036;2022-12-11T13:41:29;15.90;59.80
75719;DHT22;64340;48.534;-3.036;2022-12-11T13:43:57;16.00;59.60
75719;DHT22;64340;48.534;-3.036;2022-12-11T13:46:23;16.00;59.50
75719;DHT22;64340;48.534;-3.036;2022-12-11T13:48:51;16.10;59.30
75719;DHT22;64340;48.534;-3.036;2022-12-11T13:51:24;16.10;59.20
75719;DHT22;64340;48.534;-3.036;2022-12-11T13:59:22;15.50;53.20
75719;DHT22;64340;48.534;-3.036;2022-12-11T14:01:48;15.50;57.60
75719;DHT22;64340;48.534;-3.036;2022-12-11T14:04:14;15.60;58.30
75719;DHT22;64340;48.534;-3.036;2022-12-11T14:06:41;15.60;58.30
75719;DHT22;64340;48.534;-3.036;2022-12-11T14:09:07;15.80;58.50
75719;DHT22;64340;48.534;-3.036;2022-12-11T14:11:34;15.80;58.70
75719;DHT22;64340;48.534;-3.036;2022-12-11T14:14:02;15.80;58.20
75719;DHT22;64340;48.534;-3.036;2022-12-11T14:16:28;15.80;58.20
75719;DHT22;64340;48.534;-3.036;2022-12-11T14:18:57;15.80;58.30
75719;DHT22;64340;48.534;-3.036;2022-12-11T14:21:24;15.80;58.30
75719;DHT22;64340;48.534;-3.036;2022-12-11T14:23:51;15.80;58.30
75719;DHT22;64340;48.534;-3.036;2022-12-11T14:26:24;15.80;58.20
75719;DHT22;64340;48.534;-3.036;2022-12-11T14:28:50;15.80;58.30
75719;DHT22;64340;48.534;-3.036;2022-12-11T14:31:30;15.80;58.20
75719;DHT22;64340;48.534;-3.036;2022-12-11T14:34:04;15.90;58.30
75719;DHT22;64340;48.534;-3.036;2022-12-11T14:36:31;15.60;56.40
75719;DHT22;64340;48.534;-3.036;2022-12-11T14:39:10;15.40;56.40
75719;DHT22;64340;48.534;-3.036;2022-12-11T14:44:12;15.10;57.30
75719;DHT22;64340;48.534;-3.036;2022-12-11T14:46:45;15.40;57.90
75719;DHT22;64340;48.534;-3.036;2022-12-11T14:52:04;15.80;57.70
75719;DHT22;64340;48.534;-3.036;2022-12-11T14:54:32;15.80;57.50
75719;DHT22;64340;48.534;-3.036;2022-12-11T14:56:59;15.80;57.30
75719;DHT22;64340;48.534;-3.036;2022-12-11T14:59:26;15.90;57.40
75719;DHT22;64340;48.534;-3.036;2022-12-11T15:01:56;16.00;57.40
75719;DHT22;64340;48.534;-3.036;2022-12-11T15:04:25;16.00;58.00
75719;DHT22;64340;48.534;-3.036;2022-12-11T15:06:51;16.00;57.40
75719;DHT22;64340;48.534;-3.036;2022-12-11T15:11:52;16.10;57.40
75719;DHT22;64340;48.534;-3.036;2022-12-11T15:14:18;16.10;57.00
75719;DHT22;64340;48.534;-3.036;2022-12-11T15:16:45;16.10;57.00
75719;DHT22;64340;48.534;-3.036;2022-12-11T15:19:45;16.10;57.10
75719;DHT22;64340;48.534;-3.036;2022-12-11T15:22:05;16.10;56.60
75719;DHT22;64340;48.534;-3.036;2022-12-11T15:24:36;16.10;56.90
75719;DHT22;64340;48.534;-3.036;2022-12-11T15:27:02;16.10;57.20
75719;DHT22;64340;48.534;-3.036;2022-12-11T15:29:35;16.10;57.10
75719;DHT22;64340;48.534;-3.036;2022-12-11T15:39:45;16.30;56.90
75719;DHT22;64340;48.534;-3.036;2022-12-11T15:42:12;16.40;56.90
75719;DHT22;64340;48.534;-3.036;2022-12-11T15:44:39;16.40;56.90
75719;DHT22;64340;48.534;-3.036;2022-12-11T15:47:15;16.40;57.00
75719;DHT22;64340;48.534;-3.036;2022-12-11T15:49:42;16.50;57.10
75719;DHT22;64340;48.534;-3.036;2022-12-11T15:52:08;16.50;57.00
75719;DHT22;64340;48.534;-3.036;2022-12-11T15:54:34;16.70;56.50
75719;DHT22;64340;48.534;-3.036;2022-12-11T15:57:00;16.70;56.20
75719;DHT22;64340;48.534;-3.036;2022-12-11T15:59:27;16.40;56.00
75719;DHT22;64340;48.534;-3.036;2022-12-11T16:01:53;16.50;56.10
75719;DHT22;64340;48.534;-3.036;2022-12-11T16:04:19;16.50;56.10
75719;DHT22;64340;48.534;-3.036;2022-12-11T16:06:45;16.50;56.00
75719;DHT22;64340;48.534;-3.036;2022-12-11T16:09:11;16.50;55.80
75719;DHT22;64340;48.534;-3.036;2022-12-11T16:11:37;16.50;55.80
75719;DHT22;64340;48.534;-3.036;2022-12-11T16:14:02;16.60;55.50
75719;DHT22;64340;48.534;-3.036;2022-12-11T16:16:29;16.60;55.50
75719;DHT22;64340;48.534;-3.036;2022-12-11T16:18:56;16.60;55.50
75719;DHT22;64340;48.534;-3.036;2022-12-11T16:21:22;16.70;55.70
75719;DHT22;64340;48.534;-3.036;2022-12-11T16:23:47;16.80;55.20
75719;DHT22;64340;48.534;-3.036;2022-12-11T16:26:13;16.80;55.30
75719;DHT22;64340;48.534;-3.036;2022-12-11T16:28:40;16.70;55.30
75719;DHT22;64340;48.534;-3.036;2022-12-11T16:31:12;16.70;55.20
75719;DHT22;64340;48.534;-3.036;2022-12-11T16:33:38;16.60;55.50
75719;DHT22;64340;48.534;-3.036;2022-12-11T16:36:11;16.60;55.70
75719;DHT22;64340;48.534;-3.036;2022-12-11T16:38:37;16.70;56.30
75719;DHT22;64340;48.534;-3.036;2022-12-11T16:41:03;16.70;56.40
75719;DHT22;64340;48.534;-3.036;2022-12-11T16:43:28;16.60;56.70
75719;DHT22;64340;48.534;-3.036;2022-12-11T16:45:54;16.60;56.50
75719;DHT22;64340;48.534;-3.036;2022-12-11T16:48:20;16.60;56.50
75719;DHT22;64340;48.534;-3.036;2022-12-11T16:50:45;16.50;56.50
75719;DHT22;64340;48.534;-3.036;2022-12-11T16:53:11;16.50;56.40
75719;DHT22;64340;48.534;-3.036;2022-12-11T16:55:39;16.50;56.30
75719;DHT22;64340;48.534;-3.036;2022-12-11T16:58:04;16.50;56.40
75719;DHT22;64340;48.534;-3.036;2022-12-11T17:00:30;16.50;56.10
75719;DHT22;64340;48.534;-3.036;2022-12-11T17:02:55;16.60;56.00
75719;DHT22;64340;48.534;-3.036;2022-12-11T17:05:21;16.60;55.80
75719;DHT22;64340;48.534;-3.036;2022-12-11T17:07:47;16.50;54.20
75719;DHT22;64340;48.534;-3.036;2022-12-11T17:10:13;16.10;54.50